Time;durP1;ratioP1;P1;durP2;ratioP2;P2;SDS_P1;SDS_P2;PMS_P1;PMS_P2;Temp;Humidity;BMP_temperature;BMP_pressure;BME280_temperature;BME280_humidity;BME280_pressure;Samples;Min_cycle;Max_cycle;Signal;HPM_P1;HPM_P2
2021/03/31 00:00:44;;;;;;;18.55;11.13;;;;;;;10.57;61.68;102580.59;10212662;28;20458;-69
2021/03/31 00:05:40;;;;;;;18.27;11.30;;;;;;;10.46;61.92;102570.75;10218795;28;20167;-69
2021/03/31 00:10:42;;;;;;;21.40;11.05;;;;;;;10.43;61.75;102565.81;10215072;28;20049;-70
2021/03/31 00:15:39;;;;;;;19.77;10.40;;;;;;;10.29;63.09;102549.94;10213908;28;20650;-68
2021/03/31 00:20:36;;;;;;;18.58;10.43;;;;;;;10.23;62.50;102539.22;10204671;28;20419;-69
2021/03/31 00:25:33;;;;;;;18.02;11.05;;;;;;;10.15;63.07;102543.31;10222885;28;20129;-68
2021/03/31 00:30:29;;;;;;;21.33;10.75;;;;;;;10.06;63.48;102534.00;10218367;28;20077;-68
2021/03/31 00:35:25;;;;;;;20.88;9.77;;;;;;;9.98;62.80;102540.00;10221703;28;20053;-68
2021/03/31 00:40:25;;;;;;;25.98;10.75;;;;;;;9.89;64.70;102535.06;10221549;28;20160;-68
2021/03/31 00:45:21;;;;;;;22.20;10.45;;;;;;;9.92;64.45;102527.41;10223713;28;25137;-68
2021/03/31 00:50:19;;;;;;;17.42;10.07;;;;;;;9.97;64.18;102519.22;10230046;28;20162;-68
2021/03/31 00:55:18;;;;;;;18.33;10.60;;;;;;;9.93;63.92;102524.41;10218700;28;20049;-72
2021/03/31 01:00:15;;;;;;;21.27;10.20;;;;;;;9.85;64.26;102514.81;10219371;28;20068;-72
2021/03/31 01:05:13;;;;;;;20.50;10.77;;;;;;;9.73;64.09;102511.53;10220506;28;20511;-70
2021/03/31 01:10:11;;;;;;;18.77;10.05;;;;;;;9.61;64.15;102498.09;10224639;28;20732;-70
2021/03/31 01:15:23;;;;;;;19.20;10.27;;;;;;;9.51;64.55;102494.50;10222857;28;20053;-68
2021/03/31 01:20:33;;;;;;;21.30;9.80;;;;;;;9.42;64.53;102489.56;10211272;28;20046;-70
2021/03/31 01:25:55;;;;;;;19.67;10.05;;;;;;;9.37;65.01;102484.06;10220683;28;20049;-68
2021/03/31 01:31:28;;;;;;;19.40;9.93;;;;;;;9.24;65.65;102484.56;10216293;28;20092;-69
2021/03/31 01:36:27;;;;;;;19.08;10.38;;;;;;;9.17;65.19;102484.00;10220115;28;20125;-70
2021/03/31 01:41:24;;;;;;;22.83;9.77;;;;;;;9.12;65.32;102482.06;10219962;28;20129;-70
2021/03/31 01:46:30;;;;;;;19.17;10.07;;;;;;;9.05;65.39;102482.28;10226404;28;20069;-70
2021/03/31 01:51:28;;;;;;;30.13;10.30;;;;;;;8.98;65.69;102481.69;10209676;28;20458;-69
2021/03/31 01:56:26;;;;;;;19.38;10.48;;;;;;;8.89;65.91;102480.56;10224592;28;20678;-68
2021/03/31 02:01:25;;;;;;;18.13;10.68;;;;;;;8.85;66.40;102476.69;10216141;28;20064;-65
2021/03/31 02:06:22;;;;;;;16.30;9.25;;;;;;;8.78;66.40;102470.66;10214121;28;20076;-69
2021/03/31 02:11:19;;;;;;;19.50;10.60;;;;;;;8.75;66.13;102465.72;10212202;28;20095;-68
2021/03/31 02:16:15;;;;;;;18.35;9.50;;;;;;;8.63;68.04;102463.19;10215417;28;20049;-69
2021/03/31 02:21:13;;;;;;;18.67;9.90;;;;;;;8.71;67.03;102462.69;10213217;28;20057;-69
2021/03/31 02:26:10;;;;;;;17.30;10.02;;;;;;;8.73;66.82;102468.72;10222852;28;20081;-68
2021/03/31 02:31:06;;;;;;;19.45;9.27;;;;;;;8.72;67.33;102461.59;10218302;28;20049;-68
2021/03/31 02:36:03;;;;;;;15.07;9.15;;;;;;;8.60;67.19;102459.06;10209318;28;20061;-65
2021/03/31 02:41:00;;;;;;;17.20;9.27;;;;;;;8.55;66.72;102450.88;10221025;28;20499;-66
2021/03/31 02:45:58;;;;;;;20.33;10.05;;;;;;;8.46;66.71;102449.69;10217403;28;20060;-70
2021/03/31 02:50:58;;;;;;;20.52;9.85;;;;;;;8.38;66.85;102447.44;10210241;28;20475;-69
2021/03/31 02:55:55;;;;;;;17.95;9.00;;;;;;;8.30;67.03;102437.00;10215339;28;20058;-69
2021/03/31 03:00:52;;;;;;;25.40;10.43;;;;;;;8.27;67.84;102432.09;10203292;28;20072;-69
2021/03/31 03:05:48;;;;;;;19.15;8.95;;;;;;;8.17;67.66;102424.66;10213734;28;20064;-67
2021/03/31 03:10:44;;;;;;;16.30;9.85;;;;;;;8.10;67.51;102427.59;10212108;28;20110;-68
2021/03/31 03:15:42;;;;;;;15.38;8.88;;;;;;;8.04;67.77;102417.72;10214243;28;20060;-68
2021/03/31 03:20:38;;;;;;;19.25;10.05;;;;;;;7.97;68.18;102417.94;10212158;28;20099;-65
2021/03/31 03:25:35;;;;;;;15.82;9.35;;;;;;;7.87;68.37;102411.59;10212494;28;20498;-69
2021/03/31 03:30:33;;;;;;;16.33;9.40;;;;;;;7.82;67.93;102408.78;10220015;28;20055;-68
2021/03/31 03:35:29;;;;;;;17.65;9.38;;;;;;;7.71;68.33;102408.69;10205050;28;20100;-67
2021/03/31 03:40:26;;;;;;;17.55;9.57;;;;;;;7.59;68.69;102413.50;10207024;28;20454;-67
2021/03/31 03:45:25;;;;;;;18.70;9.60;;;;;;;7.50;69.23;102407.66;10215830;28;20054;-68
2021/03/31 03:50:21;;;;;;;17.50;8.93;;;;;;;7.48;68.87;102403.56;10212120;28;20076;-68
2021/03/31 03:55:19;;;;;;;15.15;8.57;;;;;;;7.44;69.41;102402.41;10212946;28;20049;-66
2021/03/31 04:00:21;;;;;;;18.52;10.45;;;;;;;7.40;70.01;102398.56;10216260;28;20491;-67
2021/03/31 04:05:17;;;;;;;20.85;10.30;;;;;;;7.36;69.96;102396.34;10209811;28;20050;-69
2021/03/31 04:10:15;;;;;;;21.83;10.25;;;;;;;7.40;70.28;102384.94;10207151;28;20440;-67
2021/03/31 04:15:13;;;;;;;19.00;10.50;;;;;;;7.36;70.27;102385.47;10217355;28;20052;-70
2021/03/31 04:20:12;;;;;;;19.52;9.63;;;;;;;7.36;70.66;102382.75;10209256;28;20648;-70
2021/03/31 04:25:10;;;;;;;22.33;12.20;;;;;;;7.33;71.17;102377.84;10219340;28;20076;-70
2021/03/31 04:30:10;;;;;;;19.75;10.45;;;;;;;7.36;70.73;102380.03;10213114;28;20080;-66
2021/03/31 04:35:07;;;;;;;18.88;10.73;;;;;;;7.32;70.29;102375.34;10213540;28;20063;-68
2021/03/31 04:40:14;;;;;;;20.30;10.70;;;;;;;7.34;70.78;102382.19;10218335;28;20050;-66
2021/03/31 04:45:13;;;;;;;21.35;11.40;;;;;;;7.44;69.91;102369.75;10220394;28;20046;-68
2021/03/31 04:50:11;;;;;;;22.00;12.60;;;;;;;7.43;70.06;102371.66;10216182;28;20046;-68
2021/03/31 04:55:08;;;;;;;19.20;10.65;;;;;;;7.41;69.76;102362.13;10213535;28;20060;-68
2021/03/31 05:00:05;;;;;;;18.02;10.75;;;;;;;7.36;69.69;102363.72;10214554;28;20050;-68
2021/03/31 05:05:01;;;;;;;21.42;10.77;;;;;;;7.37;69.43;102364.53;10218163;28;20108;-69
2021/03/31 05:09:58;;;;;;;17.02;10.43;;;;;;;7.35;69.38;102362.03;10218956;28;20054;-67
2021/03/31 05:14:56;;;;;;;20.10;10.60;;;;;;;7.32;69.57;102368.00;10225728;28;20053;-66
2021/03/31 05:19:52;;;;;;;17.95;10.13;;;;;;;7.35;69.73;102363.94;10221773;28;20049;-68
2021/03/31 05:24:48;;;;;;;19.15;10.45;;;;;;;7.34;70.24;102354.16;10222487;28;20057;-68
2021/03/31 05:29:44;;;;;;;18.88;11.10;;;;;;;7.20;70.92;102353.72;10223263;28;20514;-65
2021/03/31 05:34:41;;;;;;;22.05;10.50;;;;;;;7.13;71.13;102348.50;10225109;28;20055;-62
2021/03/31 05:39:37;;;;;;;23.17;11.45;;;;;;;7.12;71.12;102351.44;10222631;28;20480;-66
2021/03/31 05:44:34;;;;;;;22.65;10.95;;;;;;;7.12;71.51;102351.44;10219512;28;20053;-62
2021/03/31 05:49:32;;;;;;;19.77;11.25;;;;;;;7.15;71.44;102357.22;10219321;28;20045;-65
2021/03/31 05:54:28;;;;;;;21.08;11.98;;;;;;;7.20;71.68;102359.16;10213307;28;20045;-66
2021/03/31 05:59:25;;;;;;;20.67;11.80;;;;;;;7.21;71.76;102347.19;10208704;28;20045;-68
2021/03/31 06:04:21;;;;;;;17.35;11.30;;;;;;;7.24;72.40;102349.44;10215086;28;20049;-68
2021/03/31 06:09:17;;;;;;;24.58;13.70;;;;;;;7.42;71.51;102350.16;10221537;28;20049;-68
2021/03/31 06:14:13;;;;;;;25.25;12.93;;;;;;;7.48;71.32;102349.13;10223345;28;20883;-68
2021/03/31 06:19:21;;;;;;;21.58;12.77;;;;;;;7.46;72.01;102340.41;10215090;28;20635;-67
2021/03/31 06:24:21;;;;;;;19.63;11.85;;;;;;;7.57;72.04;102333.97;10219116;28;20050;-68
2021/03/31 06:29:17;;;;;;;23.98;13.23;;;;;;;7.66;72.16;102326.13;10223544;28;20450;-66
2021/03/31 06:34:19;;;;;;;22.92;12.57;;;;;;;7.82;71.22;102327.09;10221998;28;20053;-66
2021/03/31 06:39:15;;;;;;;24.13;13.77;;;;;;;7.91;71.58;102330.97;10218355;28;20111;-68
2021/03/31 06:44:23;;;;;;;24.05;12.88;;;;;;;8.06;70.67;102333.03;10219372;28;20049;-68
2021/03/31 06:49:19;;;;;;;22.92;13.23;;;;;;;8.20;70.47;102337.75;10223483;28;20045;-68
2021/03/31 06:54:17;;;;;;;22.95;13.43;;;;;;;8.34;70.33;102334.56;10220443;28;20052;-68
2021/03/31 06:59:13;;;;;;;21.92;13.05;;;;;;;8.47;70.13;102334.16;10218158;28;20549;-65
2021/03/31 07:04:10;;;;;;;21.27;12.90;;;;;;;8.58;68.53;102326.81;10218739;28;20046;-67
2021/03/31 07:09:18;;;;;;;22.42;14.20;;;;;;;8.76;68.21;102320.09;10218389;28;20053;-67
2021/03/31 07:14:15;;;;;;;22.20;13.20;;;;;;;8.85;68.38;102311.13;10210022;28;22140;-67
2021/03/31 07:19:11;;;;;;;21.10;13.30;;;;;;;9.02;66.13;102307.38;10215036;28;20180;-66
2021/03/31 07:24:27;;;;;;;27.45;14.00;;;;;;;9.16;65.50;102302.22;10227572;28;20045;-69
2021/03/31 07:29:23;;;;;;;24.50;14.38;;;;;;;9.29;64.38;102304.44;10216793;28;20042;-64
2021/03/31 07:34:26;;;;;;;28.73;14.38;;;;;;;9.42;63.95;102295.72;10205615;28;20045;-66
2021/03/31 07:39:28;;;;;;;26.88;13.85;;;;;;;9.60;62.81;102296.28;10215086;28;20103;-64
2021/03/31 07:44:31;;;;;;;29.35;14.75;;;;;;;9.79;60.53;102278.22;10216640;28;20049;-68
2021/03/31 07:49:28;;;;;;;27.93;17.23;;;;;;;10.02;60.80;102286.97;10203704;28;20037;-68
2021/03/31 07:54:25;;;;;;;24.13;15.02;;;;;;;10.26;59.79;102282.53;10208417;28;20053;-67
2021/03/31 07:59:21;;;;;;;26.25;14.10;;;;;;;10.48;58.02;102278.69;10206236;28;20120;-67
2021/03/31 08:04:20;;;;;;;21.92;14.20;;;;;;;10.72;56.96;102279.69;10218124;28;20127;-68
2021/03/31 08:09:19;;;;;;;30.65;14.82;;;;;;;10.91;55.69;102273.56;10221556;28;20049;-68
2021/03/31 08:14:34;;;;;;;31.83;14.75;;;;;;;11.26;52.29;102271.72;10222474;28;20522;-68
2021/03/31 08:19:44;;;;;;;26.35;15.05;;;;;;;11.49;51.22;102270.19;10214407;28;20091;-68
2021/03/31 08:24:45;;;;;;;24.88;15.13;;;;;;;11.99;48.38;102263.44;10219176;28;20052;-64
2021/03/31 08:29:42;;;;;;;28.88;15.20;;;;;;;12.25;48.47;102249.44;10216772;28;20053;-68
2021/03/31 08:34:39;;;;;;;26.35;14.85;;;;;;;12.59;46.26;102243.00;10218593;28;20049;-67
2021/03/31 08:39:36;;;;;;;26.35;14.63;;;;;;;12.64;46.42;102240.19;10205049;28;20041;-65
2021/03/31 08:44:42;;;;;;;28.75;15.68;;;;;;;12.85;44.87;102238.00;10219368;28;20049;-66
2021/03/31 08:49:40;;;;;;;28.10;14.88;;;;;;;13.23;43.33;102236.06;10217974;28;20144;-67
2021/03/31 08:54:48;;;;;;;23.02;13.63;;;;;;;13.46;42.98;102228.84;10219365;28;20041;-67
2021/03/31 08:59:54;;;;;;;26.30;13.90;;;;;;;13.77;40.75;102222.81;10212420;28;20447;-68
2021/03/31 09:04:50;;;;;;;31.73;14.15;;;;;;;14.07;41.26;102215.91;10225587;28;20811;-67
2021/03/31 09:09:47;;;;;;;24.73;15.00;;;;;;;14.26;39.06;102209.50;10222209;28;20041;-67
2021/03/31 09:15:04;;;;;;;27.42;15.48;;;;;;;14.57;40.14;102217.13;10218923;28;20173;-66
2021/03/31 09:20:05;;;;;;;27.70;15.15;;;;;;;14.70;39.66;102208.03;10213446;28;20053;-67
2021/03/31 09:25:11;;;;;;;27.67;14.18;;;;;;;15.08;40.12;102202.19;10226242;28;20053;-66
2021/03/31 09:30:27;;;;;;;26.05;14.25;;;;;;;15.25;40.28;102199.59;10203719;28;20125;-66
2021/03/31 09:35:25;;;;;;;31.77;15.35;;;;;;;15.47;37.04;102201.50;10224321;28;20113;-67
2021/03/31 09:40:25;;;;;;;26.10;14.90;;;;;;;15.56;38.19;102190.53;10210535;28;20049;-66
2021/03/31 09:45:26;;;;;;;24.27;14.77;;;;;;;15.70;35.87;102183.00;10223319;28;20054;-64
2021/03/31 09:50:27;;;;;;;27.15;14.82;;;;;;;16.01;37.95;102182.16;10214051;28;20103;-67
2021/03/31 09:55:24;;;;;;;22.35;13.52;;;;;;;16.18;37.30;102176.72;10212779;28;20054;-67
2021/03/31 10:00:22;;;;;;;27.70;15.55;;;;;;;16.45;36.65;102177.56;10215655;28;20103;-67
2021/03/31 10:05:24;;;;;;;24.65;14.88;;;;;;;16.96;34.34;102167.72;10222368;28;20130;-67
2021/03/31 10:10:41;;;;;;;26.65;14.52;;;;;;;17.37;35.15;102160.81;10231950;28;20045;-64
2021/03/31 10:15:38;;;;;;;22.63;13.45;;;;;;;17.87;32.55;102162.97;10232556;28;20045;-65
2021/03/31 10:20:42;;;;;;;21.48;12.60;;;;;;;18.29;30.41;102140.91;10209771;28;20053;-65
2021/03/31 10:25:38;;;;;;;24.42;14.27;;;;;;;18.50;31.42;102137.34;10216765;28;20529;-64
2021/03/31 10:30:53;;;;;;;23.92;13.77;;;;;;;18.92;31.16;102132.59;10207029;28;20138;-65
2021/03/31 10:36:09;;;;;;;23.58;14.48;;;;;;;19.82;30.54;102126.56;10211912;28;20136;-64
2021/03/31 10:41:28;;;;;;;27.77;13.52;;;;;;;21.04;30.14;102113.53;10213174;28;20049;-66
2021/03/31 10:52:04;;;;;;;28.15;14.00;;;;;;;22.43;26.96;102105.81;10217548;28;20073;-67
2021/03/31 10:57:12;;;;;;;20.50;14.10;;;;;;;23.38;29.23;102098.09;10212569;28;20080;-68
2021/03/31 11:02:09;;;;;;;25.73;13.77;;;;;;;23.68;26.39;102090.59;10210179;28;20053;-67
2021/03/31 11:07:05;;;;;;;25.85;14.77;;;;;;;23.50;23.95;102086.72;10211095;28;20045;-67
2021/03/31 11:12:02;;;;;;;22.48;14.32;;;;;;;23.79;23.86;102084.41;10213480;28;20042;-67
2021/03/31 11:17:08;;;;;;;21.67;13.50;;;;;;;24.40;25.39;102074.06;10208322;28;20626;-68
2021/03/31 11:27:19;;;;;;;22.40;14.15;;;;;;;24.68;25.17;102062.44;10220424;28;20138;-67
2021/03/31 11:32:15;;;;;;;31.40;16.05;;;;;;;23.77;24.17;102065.25;10212222;28;20053;-68
2021/03/31 11:37:11;;;;;;;25.48;15.30;;;;;;;24.61;25.37;102045.59;10201889;28;20041;-69
2021/03/31 11:42:07;;;;;;;24.70;15.38;;;;;;;24.74;25.04;102044.94;10198023;28;20049;-65
2021/03/31 11:47:03;;;;;;;23.23;13.95;;;;;;;25.09;22.71;102038.09;10210171;28;20046;-67
2021/03/31 11:51:59;;;;;;;23.63;14.65;;;;;;;25.49;24.56;102036.44;10208785;28;20038;-66
2021/03/31 11:56:55;;;;;;;29.02;16.63;;;;;;;25.48;24.11;102032.00;10208097;28;20041;-65
2021/03/31 12:01:51;;;;;;;28.08;14.88;;;;;;;26.20;24.58;102021.22;10212936;28;20053;-66
2021/03/31 12:06:47;;;;;;;21.00;13.60;;;;;;;26.88;23.64;102012.25;10210017;28;20057;-68
2021/03/31 12:11:43;;;;;;;31.08;15.15;;;;;;;27.27;23.28;102006.66;10207758;28;20045;-65
2021/03/31 12:16:39;;;;;;;20.58;13.20;;;;;;;27.68;21.51;101995.72;10208561;28;20050;-66
2021/03/31 12:21:35;;;;;;;23.17;14.40;;;;;;;27.39;21.80;101994.19;10217852;28;20090;-68
2021/03/31 12:26:32;;;;;;;25.42;14.57;;;;;;;27.56;22.06;101995.38;10225006;28;20045;-68
2021/03/31 12:31:28;;;;;;;19.75;13.35;;;;;;;28.07;21.60;101989.19;10221699;28;20065;-67
2021/03/31 12:36:24;;;;;;;20.88;12.82;;;;;;;28.25;19.30;101989.09;10219821;28;20057;-67
2021/03/31 12:41:20;;;;;;;21.10;13.50;;;;;;;29.04;20.59;101988.59;10224248;28;20053;-66
2021/03/31 12:46:18;;;;;;;22.95;13.70;;;;;;;28.94;18.43;101975.38;10219989;28;20045;-62
2021/03/31 12:51:18;;;;;;;18.00;12.52;;;;;;;28.81;18.03;101974.31;10223206;28;20061;-65
2021/03/31 12:56:16;;;;;;;23.33;13.98;;;;;;;29.36;16.55;101965.78;10217698;28;20457;-65
2021/03/31 13:01:21;;;;;;;18.60;11.80;;;;;;;29.52;15.46;101962.41;10223530;28;20060;-64
2021/03/31 13:06:18;;;;;;;20.08;12.82;;;;;;;29.60;16.60;101959.50;10223258;28;20080;-64
2021/03/31 13:11:15;;;;;;;24.42;13.25;;;;;;;29.85;16.32;101948.75;10219661;28;20315;-64
2021/03/31 13:16:26;;;;;;;21.65;14.65;;;;;;;30.38;16.76;101933.13;10224497;28;20436;-65
2021/03/31 13:31:56;;;;;;;20.52;11.90;;;;;;;31.22;16.02;101916.41;10220770;28;20053;-66
2021/03/31 13:37:01;;;;;;;19.52;12.60;;;;;;;30.41;14.72;101915.34;10218894;28;20063;-67
2021/03/31 13:41:58;;;;;;;21.88;13.50;;;;;;;29.92;14.98;101912.00;10220406;28;20057;-66
2021/03/31 13:46:59;;;;;;;18.05;10.65;;;;;;;30.13;15.72;101910.09;10220517;28;20073;-67
2021/03/31 13:52:08;;;;;;;21.47;10.90;;;;;;;29.75;14.30;101898.94;10219616;28;20057;-66
2021/03/31 13:57:13;;;;;;;20.50;11.07;;;;;;;30.15;14.76;101891.53;10217634;28;20046;-68
2021/03/31 14:02:09;;;;;;;19.88;11.95;;;;;;;29.76;14.54;101892.09;10215890;28;20081;-66
2021/03/31 14:07:25;;;;;;;17.35;11.57;;;;;;;29.44;14.72;101876.34;10210094;28;20053;-67
2021/03/31 14:12:42;;;;;;;18.42;11.23;;;;;;;29.55;15.25;101877.03;10214112;28;20051;-67
2021/03/31 14:17:58;;;;;;;20.60;10.98;;;;;;;29.39;15.24;101868.38;10213487;28;20423;-67
2021/03/31 14:22:54;;;;;;;21.55;12.63;;;;;;;29.72;14.86;101857.50;10215600;28;20065;-64
2021/03/31 14:27:50;;;;;;;19.05;12.38;;;;;;;28.91;15.27;101846.75;10210692;28;20518;-65
2021/03/31 14:32:59;;;;;;;18.55;11.77;;;;;;;29.68;14.62;101839.84;10211999;28;20137;-67
2021/03/31 14:38:15;;;;;;;16.63;10.48;;;;;;;29.30;15.62;101837.09;10212685;28;20054;-65
2021/03/31 14:43:11;;;;;;;18.67;11.70;;;;;;;29.04;14.82;101845.00;10212065;28;20046;-66
2021/03/31 14:48:07;;;;;;;18.58;12.52;;;;;;;29.15;15.07;101839.28;10211938;28;20451;-67
2021/03/31 15:03:54;;;;;;;19.52;12.52;;;;;;;27.61;15.95;101838.44;10225965;28;20168;-67
2021/03/31 15:08:50;;;;;;;23.42;14.07;;;;;;;26.95;16.76;101835.44;10223258;28;20046;-68
2021/03/31 15:13:47;;;;;;;23.63;14.07;;;;;;;26.89;17.42;101826.63;10218818;28;20526;-68
2021/03/31 15:19:05;;;;;;;22.63;12.93;;;;;;;26.86;17.22;101835.84;10206541;28;20792;-66
2021/03/31 15:24:01;;;;;;;23.15;13.50;;;;;;;27.39;16.86;101820.88;10206337;28;21218;-68
2021/03/31 15:28:57;;;;;;;24.95;13.18;;;;;;;27.36;16.01;101809.66;10218632;28;20049;-66
2021/03/31 15:34:13;;;;;;;25.58;15.23;;;;;;;28.18;16.00;101814.81;10206680;28;20044;-68
2021/03/31 15:39:15;;;;;;;21.38;14.10;;;;;;;28.02;15.76;101794.88;10209143;28;20060;-66
2021/03/31 15:44:17;;;;;;;24.47;15.10;;;;;;;28.07;15.25;101803.66;10213716;28;20046;-68
2021/03/31 15:49:18;;;;;;;21.88;12.57;;;;;;;27.91;16.25;101781.69;10211854;28;20551;-67
2021/03/31 15:54:20;;;;;;;20.73;14.60;;;;;;;27.85;16.70;101786.16;10201192;28;20046;-66
2021/03/31 15:59:21;;;;;;;27.53;16.60;;;;;;;27.87;16.52;101788.53;10209543;28;20042;-66
2021/03/31 16:04:25;;;;;;;24.80;15.13;;;;;;;27.97;16.74;101782.06;10217883;28;20427;-67
2021/03/31 16:09:25;;;;;;;22.30;14.70;;;;;;;27.97;17.04;101781.25;10203800;28;20453;-65
2021/03/31 16:14:26;;;;;;;27.80;17.92;;;;;;;27.72;18.56;101782.19;10212300;28;20054;-68
2021/03/31 16:19:27;;;;;;;27.05;17.52;;;;;;;27.32;18.77;101778.81;10210155;28;20115;-68
2021/03/31 16:24:28;;;;;;;26.33;16.88;;;;;;;26.98;19.44;101790.50;10210052;28;20691;-65
2021/03/31 16:29:31;;;;;;;27.30;15.30;;;;;;;26.46;20.65;101787.41;10213557;28;20529;-67
2021/03/31 16:34:27;;;;;;;27.88;15.90;;;;;;;26.12;21.67;101796.19;10219829;28;20502;-67
2021/03/31 16:39:28;;;;;;;25.50;15.38;;;;;;;25.79;20.87;101795.31;10202510;28;20037;-67
2021/03/31 16:44:29;;;;;;;23.83;13.48;;;;;;;25.09;20.17;101791.06;10212896;28;20449;-66
2021/03/31 16:49:32;;;;;;;25.85;15.07;;;;;;;24.58;21.90;101795.53;10209130;28;20453;-67
2021/03/31 16:54:33;;;;;;;;;;;;;;;24.17;22.85;101800.34;10208308;28;20083;-67
2021/03/31 16:59:34;;;;;;;30.75;16.52;;;;;;;23.74;21.40;101786.75;10216872;28;19975;-67
2021/03/31 17:04:35;;;;;;;29.15;17.83;;;;;;;23.81;21.28;101786.03;10217698;28;21892;-67
2021/03/31 17:09:36;;;;;;;28.98;18.92;;;;;;;23.41;21.71;101776.41;10220401;28;20123;-65
2021/03/31 17:14:37;;;;;;;27.30;18.25;;;;;;;23.07;22.83;101779.97;10223569;28;20536;-68
2021/03/31 17:19:39;;;;;;;32.25;18.63;;;;;;;22.84;22.54;101768.88;10232662;28;20119;-66
2021/03/31 17:24:40;;;;;;;29.65;19.38;;;;;;;22.67;21.98;101763.81;10215544;28;20049;-66
2021/03/31 17:29:41;;;;;;;41.15;26.05;;;;;;;22.39;22.36;101765.00;10224811;28;20049;-65
2021/03/31 17:34:45;;;;;;;33.45;21.70;;;;;;;22.11;23.23;101770.88;10221327;28;20045;-65
2021/03/31 17:39:47;;;;;;;160.88;106.00;;;;;;;21.90;23.83;101771.28;10219523;28;20045;-64
2021/03/31 17:44:49;;;;;;;37.03;21.27;;;;;;;21.77;24.24;101772.63;10222264;28;20085;-64
2021/03/31 17:49:51;;;;;;;41.70;25.38;;;;;;;21.57;26.37;101774.66;10215097;28;20085;-64
2021/03/31 17:54:52;;;;;;;33.88;21.27;;;;;;;21.39;24.32;101774.25;10225290;28;20087;-64
2021/03/31 17:59:53;;;;;;;31.20;17.80;;;;;;;21.15;24.17;101778.94;10221208;28;20072;-65
2021/03/31 18:04:54;;;;;;;34.92;20.50;;;;;;;20.91;23.76;101791.16;10222024;28;20049;-64
2021/03/31 18:09:55;;;;;;;32.22;18.42;;;;;;;20.81;26.59;101784.16;10217499;28;20164;-67
2021/03/31 18:14:56;;;;;;;29.13;17.35;;;;;;;20.66;25.35;101792.53;10210376;28;20053;-65
2021/03/31 18:19:57;;;;;;;28.25;17.55;;;;;;;20.52;25.78;101790.19;10218993;28;20049;-68
2021/03/31 18:24:58;;;;;;;30.83;18.80;;;;;;;20.37;27.13;101792.59;10211515;28;20419;-68
2021/03/31 18:29:59;;;;;;;30.15;16.40;;;;;;;20.22;27.89;101801.75;10211892;28;20049;-67
2021/03/31 18:35:00;;;;;;;34.55;18.48;;;;;;;20.06;28.48;101804.50;10190443;28;20045;-67
2021/03/31 18:45:14;;;;;;;35.35;20.50;;;;;;;19.79;27.30;101800.59;10168375;28;20184;-68
2021/03/31 18:50:17;;;;;;;38.33;23.00;;;;;;;19.61;26.69;101800.09;10210147;28;20050;-67
2021/03/31 18:55:20;;;;;;;33.13;19.77;;;;;;;19.58;28.59;101800.00;10210467;28;20057;-66
2021/03/31 19:00:23;;;;;;;;;;;;;;;19.47;30.31;101794.97;10190214;28;20622;-69
2021/03/31 19:05:25;;;;;;;33.42;17.30;;;;;;;19.29;31.02;101788.88;10204360;28;19932;-68
2021/03/31 19:15:46;;;;;;;32.55;17.90;;;;;;;18.92;31.93;101791.75;10188724;28;20484;-67
2021/03/31 19:20:47;;;;;;;32.58;19.42;;;;;;;18.77;32.07;101780.56;10208890;28;20049;-66
2021/03/31 19:25:51;;;;;;;31.80;19.23;;;;;;;18.58;31.69;101787.47;10211474;28;20061;-68
2021/03/31 19:30:53;;;;;;;32.53;18.33;;;;;;;18.40;31.94;101797.16;10198201;28;20052;-66
2021/03/31 19:35:54;;;;;;;34.90;19.08;;;;;;;18.22;32.97;101791.84;10204408;28;20103;-68
2021/03/31 19:40:55;;;;;;;40.13;21.00;;;;;;;18.07;31.95;101789.72;10198944;28;20061;-66
2021/03/31 19:45:56;;;;;;;34.97;19.27;;;;;;;17.94;33.66;101790.84;10201309;28;20050;-67
2021/03/31 19:50:59;;;;;;;40.60;22.50;;;;;;;17.81;33.23;101785.28;10202689;28;20054;-66
2021/03/31 19:56:01;;;;;;;39.85;21.67;;;;;;;17.69;33.59;101792.72;10203087;28;20073;-62
2021/03/31 20:01:02;;;;;;;38.53;20.92;;;;;;;17.60;34.10;101781.72;10210626;28;20041;-66
2021/03/31 20:06:03;;;;;;;38.10;22.33;;;;;;;17.45;34.37;101786.75;10208624;28;20049;-66
2021/03/31 20:11:04;;;;;;;40.30;22.23;;;;;;;17.36;34.90;101785.19;10212604;28;20111;-67
2021/03/31 20:16:05;;;;;;;34.70;20.17;;;;;;;17.23;35.63;101784.31;10208769;28;20170;-68
2021/03/31 20:21:07;;;;;;;36.45;20.77;;;;;;;17.15;35.64;101776.91;10201053;28;20049;-68
2021/03/31 20:26:08;;;;;;;34.25;21.98;;;;;;;17.04;38.35;101770.97;10208810;28;20129;-68
2021/03/31 20:31:10;;;;;;;37.53;21.88;;;;;;;16.92;37.01;101762.59;10212210;28;20396;-70
2021/03/31 20:36:06;;;;;;;44.25;22.83;;;;;;;16.82;36.67;101763.81;10217897;28;20049;-67
2021/03/31 20:41:07;;;;;;;38.33;21.40;;;;;;;16.75;36.09;101763.50;10218695;28;20450;-67
2021/03/31 20:46:03;;;;;;;40.28;20.77;;;;;;;16.69;37.63;101765.66;10224110;28;20045;-68
2021/03/31 20:51:06;;;;;;;43.03;21.23;;;;;;;16.60;37.03;101760.19;10220346;28;20053;-68
2021/03/31 20:56:07;;;;;;;42.75;22.00;;;;;;;16.57;37.78;101769.13;10224817;28;20045;-69
2021/03/31 21:01:08;;;;;;;39.45;22.27;;;;;;;16.53;37.89;101751.63;10230478;28;20773;-69
2021/03/31 21:06:09;;;;;;;41.85;21.98;;;;;;;16.48;38.85;101759.28;10218303;28;20103;-69
2021/03/31 21:11:10;;;;;;;41.55;21.98;;;;;;;16.47;39.00;101758.47;10222695;28;20038;-68
2021/03/31 21:16:11;;;;;;;39.63;21.77;;;;;;;16.39;40.44;101757.38;10224249;28;20041;-69
2021/03/31 21:21:14;;;;;;;38.95;21.95;;;;;;;16.36;39.84;101751.69;10224163;28;20092;-69
2021/03/31 21:26:18;;;;;;;37.60;20.77;;;;;;;16.28;39.34;101752.56;10210552;28;20120;-69
2021/03/31 21:31:19;;;;;;;35.58;20.15;;;;;;;16.21;39.72;101753.06;10220449;28;20046;-68
2021/03/31 21:36:19;;;;;;;43.47;21.58;;;;;;;16.09;40.02;101759.28;10210926;28;20076;-70
2021/03/31 21:41:20;;;;;;;42.50;22.45;;;;;;;15.98;39.97;101746.97;10225311;28;20045;-71
2021/03/31 21:46:24;;;;;;;37.33;20.88;;;;;;;15.86;40.49;101746.88;10226590;28;20049;-71
2021/03/31 21:51:21;;;;;;;39.67;21.25;;;;;;;15.75;40.11;101744.44;10219002;28;20050;-72
2021/03/31 21:56:17;;;;;;;41.25;22.75;;;;;;;15.62;40.75;101739.91;10208480;28;20053;-71
2021/03/31 22:01:13;;;;;;;40.70;22.40;;;;;;;15.47;40.75;101737.66;10211741;28;20076;-66
2021/03/31 22:06:10;;;;;;;41.63;23.77;;;;;;;15.38;40.97;101739.63;10220041;28;20042;-69
2021/03/31 22:11:09;;;;;;;38.60;22.50;;;;;;;15.27;41.56;101734.44;10210998;28;20045;-67
2021/03/31 22:16:07;;;;;;;39.47;23.92;;;;;;;15.17;42.17;101740.25;10217553;28;20485;-69
2021/03/31 22:21:06;;;;;;;40.03;23.27;;;;;;;15.07;42.38;101735.09;10225908;28;20056;-69
2021/03/31 22:26:03;;;;;;;38.42;21.75;;;;;;;14.97;43.51;101740.91;10206580;28;20495;-67
2021/03/31 22:31:00;;;;;;;37.35;22.08;;;;;;;14.84;44.08;101737.97;10223417;28;20042;-69
2021/03/31 22:35:59;;;;;;;38.30;22.50;;;;;;;14.79;44.02;101740.91;10219080;28;20049;-67
2021/03/31 22:40:55;;;;;;;42.05;23.02;;;;;;;14.70;45.37;101737.31;10221004;28;20414;-66
2021/03/31 22:45:52;;;;;;;38.60;22.77;;;;;;;14.60;44.32;101732.13;10212280;28;20056;-69
2021/03/31 22:55:48;;;;;;;40.55;22.40;;;;;;;14.49;44.78;101732.38;10224719;28;20072;-68
2021/03/31 23:00:47;;;;;;;40.78;22.85;;;;;;;14.46;45.63;101727.53;10225001;28;20057;-67
2021/03/31 23:05:43;;;;;;;42.70;23.42;;;;;;;14.42;46.51;101712.78;10209412;28;20099;-67
2021/03/31 23:10:39;;;;;;;38.80;21.58;;;;;;;14.35;46.80;101704.19;10212278;28;20042;-67
2021/03/31 23:15:35;;;;;;;39.60;22.52;;;;;;;14.34;47.24;101708.03;10195361;28;20049;-67
2021/03/31 23:20:31;;;;;;;40.67;23.08;;;;;;;14.21;47.05;101709.00;10214416;28;20152;-67